Latest Weather Observations for Horsley Park

IDN60901

Issued at 9:25 pm EST Wednesday 17 September 2014 (issued every 10 minutes, with the page automatically refreshed every 10 minutes)

About weather observations | Map of Sydney area stations | Latest observations for Sydney area | Other Formats
Station Details ID: 067119 Name: HORSLEY PARK EQUESTRIAN CENTRE AWS Lat: -33.85 Lon: 150.86 Height: 100.0 m
Data from the previous 72 hours. | See also: Recent months at Horsley Park
Date/Time
EST
Tmp

°C
App
Tmp
°C
Dew
Point
°C
Rel
Hum
%
Delta-T

°C
Wind Press
QNH
hPa
Press
MSL
hPa
Rain
since
9 am
mm
Dir
 
Spd
km/h
Gust
km/h
Spd
kts
Gust
kts
17/09:00pm 14.2 10.6 3.1 47 5.0 WNW 11 19 6 10 - - 0.0
17/08:30pm 15.1 10.8 3.0 44 5.5 W 15 26 8 14 - - 0.0
17/08:00pm 14.2 11.1 3.7 49 4.8 WNW 9 15 5 8 - - 0.0
17/07:30pm 14.0 11.8 3.5 49 4.8 WNW 4 6 2 3 - - 0.0
17/07:00pm 14.9 12.1 3.1 45 5.3 WNW 7 11 4 6 - - 0.0
17/06:30pm 15.8 12.5 2.6 41 6.0 W 9 17 5 9 - - 0.0
17/06:00pm 16.1 12.8 2.2 39 6.2 W 9 15 5 8 - - 0.0
17/05:30pm 17.2 12.6 1.6 35 7.0 W 15 28 8 15 - - 0.0
17/05:00pm 18.4 13.3 1.0 31 7.8 W 17 32 9 17 - - 0.0
17/04:30pm 18.9 12.8 0.5 29 8.2 W 22 37 12 20 - - 0.0
17/04:00pm 19.5 13.9 1.0 29 8.3 W 20 37 11 20 - - 0.0
17/03:30pm 19.6 14.0 1.1 29 8.4 W 20 35 11 19 - - 0.0
17/03:00pm 19.8 14.5 1.7 30 8.3 W 19 28 10 15 - - 0.0
17/02:30pm 20.0 14.1 1.4 29 8.5 WNW 22 37 12 20 - - 0.0
17/02:00pm 20.0 15.2 2.4 31 8.2 WSW 17 33 9 18 - - 0.0
17/01:30pm 19.9 15.0 1.8 30 8.3 W 17 35 9 19 - - 0.0
17/01:00pm 20.3 15.9 2.6 31 8.3 W 15 26 8 14 - - 0.0
17/12:30pm 19.2 14.6 1.7 31 8.0 W 15 24 8 13 - - 0.0
17/12:00pm 19.6 15.8 4.1 36 7.4 WNW 13 22 7 12 - - 0.0
17/11:30am 18.7 12.7 1.2 31 7.9 W 22 33 12 18 - - 0.0
17/11:00am 18.9 13.4 1.9 32 7.8 WSW 20 30 11 16 - - 0.0
17/10:30am 18.6 13.3 2.9 35 7.3 W 20 32 11 17 - - 0.0
17/10:00am 17.9 12.6 1.8 34 7.3 W 19 35 10 19 - - 0.0
17/09:30am 17.5 12.0 1.9 35 7.0 WSW 20 39 11 21 - - 0.0
17/09:00am 17.0 10.9 2.6 38 6.6 WSW 24 43 13 23 - - 0.6
17/08:30am 16.0 10.2 2.4 40 6.1 W 22 39 12 21 - - 0.6
17/08:00am 15.5 11.4 4.3 47 5.2 W 15 30 8 16 - - 0.6
17/07:30am 15.2 12.0 5.1 51 4.8 W 11 19 6 10 - - 0.6
17/07:00am 13.6 11.7 6.5 62 3.4 W 6 11 3 6 - - 0.6
17/06:30am 9.6 8.7 6.1 79 1.6 CALM 0 0 0 0 - - 0.6
17/06:00am 9.8 9.0 6.5 80 1.5 NNW 0 0 0 0 - - 0.6
17/05:30am 9.6 8.4 6.3 80 1.5 NW 2 4 1 2 - - 0.6
17/05:00am 8.5 7.7 6.3 86 1.0 CALM 0 0 0 0 - - 0.6
17/04:30am 8.8 8.0 6.3 84 1.2 CALM 0 4 0 2 - - 0.6
17/04:00am 9.6 8.5 6.7 82 1.4 W 2 4 1 2 - - 0.6
17/03:30am 9.1 8.3 6.7 85 1.1 CALM 0 0 0 0 - - 0.6
17/03:00am 9.7 8.9 6.4 80 1.5 CALM 0 0 0 0 - - 0.6
17/02:30am 10.3 9.6 6.8 79 1.7 CALM 0 0 0 0 - - 0.6
17/02:00am 9.4 8.6 6.3 81 1.4 CALM 0 0 0 0 - - 0.6
17/01:30am 9.8 9.1 7.1 83 1.3 CALM 0 0 0 0 - - 0.6
17/01:00am 10.4 9.6 6.4 76 1.9 CALM 0 0 0 0 - - 0.6
17/12:30am 10.6 9.8 6.7 77 1.8 CALM 0 0 0 0 - - 0.6
17/12:00am 12.5 10.6 6.8 68 2.7 NW 6 7 3 4 - - 0.6
 
Date/Time
EST
Tmp

°C
App
Tmp
°C
Dew
Point
°C
Rel
Hum
%
Delta-T

°C
Wind Press
QNH
hPa
Press
MSL
hPa
Rain
since
9 am
mm
Dir
 
Spd
km/h
Gust
km/h
Spd
kts
Gust
kts
16/11:30pm 12.9 11.0 6.5 65 3.1 NW 6 7 3 4 - - 0.6
16/11:00pm 13.3 11.3 6.2 62 3.4 NW 6 11 3 6 - - 0.6
16/10:30pm 13.8 11.7 6.7 62 3.4 NW 7 11 4 6 - - 0.6
16/10:00pm 13.4 11.8 6.5 63 3.3 NW 4 6 2 3 - - 0.6
16/09:30pm 14.0 12.3 6.1 59 3.8 W 4 9 2 5 - - 0.6
16/09:00pm 14.8 12.6 6.1 56 4.2 WNW 7 11 4 6 - - 0.6
16/08:30pm 15.9 13.0 6.3 53 4.7 WNW 11 19 6 10 - - 0.6
16/08:00pm 16.1 13.2 6.5 53 4.7 WNW 11 19 6 10 - - 0.6
16/07:30pm 16.6 14.4 6.4 51 5.0 WNW 7 15 4 8 - - 0.6
16/07:00pm 17.4 14.0 6.0 47 5.6 WNW 13 22 7 12 - - 0.6
16/06:30pm 18.0 14.2 5.9 45 6.0 WNW 15 28 8 15 - - 0.6
16/06:00pm 18.3 14.5 5.8 44 6.1 WNW 15 30 8 16 - - 0.6
16/05:30pm 19.4 15.1 5.1 39 7.0 WNW 17 30 9 16 - - 0.6
16/05:00pm 20.0 14.8 5.3 38 7.2 WNW 22 35 12 19 - - 0.6
16/04:30pm 20.9 16.5 4.9 35 7.9 WNW 17 32 9 17 - - 0.6
16/04:00pm 21.3 17.1 5.6 36 7.9 WNW 17 30 9 16 - - 0.6
16/03:30pm 22.6 18.4 5.5 33 8.6 WNW 17 28 9 15 - - 0.6
16/03:00pm 23.1 21.0 9.8 43 7.3 WNW 11 19 6 10 - - 0.6
16/02:30pm 22.6 22.0 12.3 52 5.9 WNW 7 17 4 9 - - 0.6
16/02:00pm 21.8 21.5 11.5 52 5.8 NNW 4 11 2 6 - - 0.6
16/01:30pm 21.8 22.4 13.2 58 5.0 N 2 6 1 3 - - 0.6
16/01:00pm 19.5 20.8 15.2 76 2.5 WSW 2 4 1 2 - - 0.6
16/12:30pm 19.4 19.2 12.9 66 3.7 ENE 6 15 3 8 - - 0.0
16/12:00pm 20.3 20.5 14.2 68 3.6 NE 6 15 3 8 - - 0.0
16/11:30am 19.6 18.9 14.4 72 3.0 NNE 11 19 6 10 - - 0.0
16/11:00am 18.6 18.9 14.5 77 2.4 NE 6 13 3 7 - - 0.0
16/10:30am 16.6 16.7 13.9 84 1.5 NNW 6 9 3 5 - - 0.0
16/10:00am 15.3 15.4 12.6 84 1.5 WNW 4 7 2 4 - - 0.0
16/09:30am 15.3 14.4 12.6 84 1.5 W 9 19 5 10 - - 0.0
16/09:00am 15.6 15.4 12.9 84 1.5 WNW 6 9 3 5 - - 0.2
16/08:30am 14.9 15.0 12.6 86 1.3 SSE 4 6 2 3 - - 0.2
16/08:00am 14.6 14.2 12.3 86 1.3 ESE 6 11 3 6 - - 0.2
16/07:30am 14.4 14.8 12.6 89 1.0 WSW 2 6 1 3 - - 0.2
16/07:00am 13.5 14.3 12.6 94 0.5 CALM 0 4 0 2 - - 0.2
16/06:30am 12.6 12.8 11.8 95 0.4 NNE 2 2 1 1 - - 0.2
16/06:00am 12.2 12.6 11.1 93 0.6 CALM 0 0 0 0 - - 0.2
16/05:30am 12.6 12.6 11.2 91 0.7 ESE 2 4 1 2 - - 0.2
16/05:00am 13.3 12.5 11.7 90 0.9 SSW 7 9 4 5 - - 0.2
16/04:30am 13.2 12.1 11.9 92 0.7 E 9 15 5 8 - - 0.2
16/04:00am 13.1 13.0 12.2 94 0.5 NW 4 9 2 5 - - 0.2
16/03:30am 12.8 12.7 12.2 96 0.3 W 4 7 2 4 - - 0.2
16/03:00am 12.1 12.6 11.5 96 0.3 CALM 0 0 0 0 - - 0.2
16/02:30am 12.0 12.4 11.1 94 0.5 CALM 0 0 0 0 - - 0.2
16/02:00am 12.6 13.0 11.3 92 0.7 CALM 0 0 0 0 - - 0.2
16/01:30am 12.9 12.5 11.0 88 1.0 E 4 6 2 3 - - 0.2
16/01:00am 13.9 13.6 11.6 86 1.2 N 4 6 2 3 - - 0.2
16/12:30am 14.3 12.8 11.8 85 1.4 NE 11 15 6 8 - - 0.2
16/12:00am 13.9 13.9 11.2 84 1.4 NE 2 9 1 5 - - 0.0
 
Date/Time
EST
Tmp

°C
App
Tmp
°C
Dew
Point
°C
Rel
Hum
%
Delta-T

°C
Wind Press
QNH
hPa
Press
MSL
hPa
Rain
since
9 am
mm
Dir
 
Spd
km/h
Gust
km/h
Spd
kts
Gust
kts
15/11:30pm 14.9 14.8 12.0 83 1.6 NW 4 7 2 4 - - 0.0
15/11:00pm 14.1 14.5 11.4 84 1.4 CALM 0 0 0 0 - - 0.0
15/10:30pm 13.8 14.2 11.3 85 1.3 CALM 0 0 0 0 - - 0.0
15/10:00pm 13.6 13.9 11.0 84 1.4 CALM 0 0 0 0 - - 0.0
15/09:30pm 13.6 14.0 11.1 85 1.3 CALM 0 0 0 0 - - 0.0
15/09:00pm 13.2 13.4 10.6 84 1.4 CALM 0 0 0 0 - - 0.0
15/08:30pm 14.1 14.4 10.9 81 1.7 CALM 0 0 0 0 - - 0.0
15/08:00pm 15.0 14.9 10.8 76 2.2 NE 2 6 1 3 - - 0.0
15/07:30pm 15.2 14.3 10.6 74 2.4 ENE 6 11 3 6 - - 0.0
15/07:00pm 15.5 14.0 10.5 72 2.7 E 9 19 5 10 - - 0.0
15/06:30pm 16.1 14.2 10.4 69 3.0 ENE 11 17 6 9 - - 0.0
15/06:00pm 16.6 14.3 10.5 67 3.3 E 13 19 7 10 - - 0.0
15/05:30pm 17.3 15.3 10.2 63 3.8 ENE 11 19 6 10 - - 0.0
15/05:00pm 18.2 15.9 10.6 61 4.1 ENE 13 19 7 10 - - 0.0
15/04:30pm 18.9 16.2 10.2 57 4.7 E 15 24 8 13 - - 0.0
15/04:00pm 19.4 16.3 10.4 56 4.9 E 17 24 9 13 - - 0.0
15/03:30pm 20.4 17.9 11.1 55 5.1 E 15 22 8 12 - - 0.0
15/03:00pm 21.0 18.5 11.1 53 5.5 E 15 24 8 13 - - 0.0
15/02:30pm 21.3 19.7 6.4 38 7.6 NNE 4 11 2 6 - - 0.0
15/02:00pm 21.2 19.4 7.1 40 7.3 ESE 6 13 3 7 - - 0.0
15/01:30pm 21.3 20.6 6.8 39 7.4 CALM 0 9 0 5 - - 0.0
15/01:00pm 21.0 19.9 8.6 45 6.5 SSW 4 11 2 6 - - 0.0
15/12:30pm 20.4 19.1 7.7 44 6.6 WSW 4 7 2 4 - - 0.0
15/12:00pm 20.1 19.0 8.4 47 6.1 NNE 4 13 2 7 - - 0.0
15/11:30am 19.5 18.4 8.5 49 5.7 NNE 4 11 2 6 - - 0.0
15/11:00am 18.9 17.1 9.4 54 5.0 N 9 13 5 7 - - 0.0
15/10:30am 17.7 16.3 9.6 59 4.3 NE 7 15 4 8 - - 0.0
15/10:00am 17.9 18.6 12.1 69 3.2 CALM 0 4 0 2 - - 0.0
15/09:30am 16.7 15.9 11.0 69 3.1 N 6 9 3 5 - - 0.0
15/09:00am 16.6 16.3 11.5 72 2.8 NW 4 7 2 4 - - 0.0
15/08:30am 15.8 15.9 11.6 76 2.3 W 2 4 1 2 - - 0.0
15/08:00am 14.4 13.3 10.8 79 1.9 WNW 7 11 4 6 - - 0.0
15/07:30am 13.4 12.4 10.9 85 1.3 W 7 11 4 6 - - 0.0
15/07:00am 12.6 12.6 11.3 92 0.7 WSW 2 6 1 3 - - 0.0
15/06:30am 11.3 11.3 9.9 91 0.7 CALM 0 2 0 1 - - 0.0
15/06:00am 12.0 11.9 10.7 92 0.7 W 2 7 1 4 - - 0.0
15/05:30am 12.5 11.6 10.7 89 0.9 SW 6 9 3 5 - - 0.0
15/05:00am 12.4 11.6 11.1 92 0.7 SW 6 9 3 5 - - 0.0
15/04:30am 12.4 11.5 10.5 88 1.0 SW 6 7 3 4 - - 0.0
15/04:00am 12.7 11.7 10.9 89 0.9 SW 7 9 4 5 - - 0.0
15/03:30am 12.9 11.9 11.1 89 1.0 SW 7 11 4 6 - - 0.0
15/03:00am 12.9 12.0 11.3 90 0.8 SW 7 11 4 6 - - 0.0
15/02:30am 12.3 11.8 10.9 91 0.7 SW 4 6 2 3 - - 0.0
15/02:00am 12.8 12.1 11.4 91 0.7 SSW 6 6 3 3 - - 0.0
15/01:30am 12.3 11.8 10.9 91 0.7 SSW 4 6 2 3 - - 0.0
15/01:00am 12.8 12.0 10.9 88 1.0 SW 6 7 3 4 - - 0.0
15/12:30am 14.0 13.3 11.3 84 1.4 SW 6 7 3 4 - - 0.0
15/12:00am 14.4 13.6 11.7 84 1.5 SW 7 9 4 5 - - 0.0
 
Date/Time
EST
Tmp

°C
App
Tmp
°C
Dew
Point
°C
Rel
Hum
%
Delta-T

°C
Wind Press
QNH
hPa
Press
MSL
hPa
Rain
since
9 am
mm
Dir
 
Spd
km/h
Gust
km/h
Spd
kts
Gust
kts
14/11:30pm 14.2 13.4 11.7 85 1.3 WSW 7 11 4 6 - - 0.0
14/11:00pm 13.1 13.3 11.7 91 0.7 WSW 2 6 1 3 - - 0.0
14/10:30pm 12.7 13.1 11.1 90 0.8 CALM 0 0 0 0 - - 0.0
14/10:00pm 13.2 13.0 11.9 92 0.7 WSW 4 6 2 3 - - 0.0
14/09:30pm 13.1 13.0 10.8 86 1.2 W 2 4 1 2 - - 0.0

Latest Capital City Observations: Canberra | Sydney | Melbourne | Brisbane | Adelaide | Perth | Hobart | Darwin

Other Formats:

Comma delimited format used in spreadsheet applications
http://www.bom.gov.au/fwo/IDN60901/IDN60901.94760.axf

JavaScript Object Notation format (JSON) in row-major order
http://www.bom.gov.au/fwo/IDN60901/IDN60901.94760.json